Time;durP1;ratioP1;P1;durP2;ratioP2;P2;SDS_P1;SDS_P2;PMS_P1;PMS_P2;Temp;Humidity;BMP_temperature;BMP_pressure;BME280_temperature;BME280_humidity;BME280_pressure;Samples;Min_cycle;Max_cycle;Signal;HPM_P1;HPM_P2
2021/04/23 00:02:13;;;;;;;6.70;3.30;;;;;;;;;;4874519;29;20634;-86
2021/04/23 00:05:18;;;;;;;6.80;2.90;;;;;;;;;;4851709;29;20602;-86
2021/04/23 00:08:22;;;;;;;4.63;2.90;;;;;;;;;;4868989;29;20923;-86
2021/04/23 00:11:32;;;;;;;6.17;3.10;;;;;;;;;;4857092;29;20598;-86
2021/04/23 00:14:50;;;;;;;5.90;2.90;;;;;;;;;;4857356;29;20963;-88
2021/04/23 00:17:55;;;;;;;9.43;3.13;;;;;;;;;;4850999;29;21210;-89
2021/04/23 00:21:00;;;;;;;7.77;2.90;;;;;;;;;;4861300;29;20586;-88
2021/04/23 00:24:04;;;;;;;4.80;2.93;;;;;;;;;;4866915;29;20580;-88
2021/04/23 00:27:09;;;;;;;10.47;3.80;;;;;;;;;;4853866;29;20626;-88
2021/04/23 00:30:13;;;;;;;9.20;3.03;;;;;;;;;;4867803;29;20662;-88
2021/04/23 00:33:19;;;;;;;6.07;3.03;;;;;;;;;;4861888;29;20596;-88
2021/04/23 00:36:23;;;;;;;10.60;3.20;;;;;;;;;;4864769;29;20602;-89
2021/04/23 00:39:29;;;;;;;7.87;3.53;;;;;;;;;;4846063;29;20667;-88
2021/04/23 00:42:33;;;;;;;7.33;3.10;;;;;;;;;;4849929;29;20643;-88
2021/04/23 00:45:38;;;;;;;11.73;3.57;;;;;;;;;;4858532;29;20599;-88
2021/04/23 00:48:45;;;;;;;4.93;3.30;;;;;;;;;;4868344;29;20547;-88
2021/04/23 00:51:54;;;;;;;7.77;3.00;;;;;;;;;;4821197;29;20608;-89
2021/04/23 00:54:58;;;;;;;8.47;2.87;;;;;;;;;;4827138;29;20619;-88
2021/04/23 00:58:06;;;;;;;7.57;2.90;;;;;;;;;;4838951;29;21004;-88
2021/04/23 01:01:13;;;;;;;11.93;3.63;;;;;;;;;;4842141;29;20592;-89
2021/04/23 01:04:20;;;;;;;6.80;2.57;;;;;;;;;;4861285;29;20596;-88
2021/04/23 01:07:24;;;;;;;9.13;3.30;;;;;;;;;;4857410;29;20599;-88
2021/04/23 01:10:30;;;;;;;5.97;2.90;;;;;;;;;;4867655;29;20654;-88
2021/04/23 01:13:34;;;;;;;6.37;2.80;;;;;;;;;;4859786;29;21178;-88
2021/04/23 01:16:40;;;;;;;10.87;3.10;;;;;;;;;;4854030;29;20948;-88
2021/04/23 01:19:44;;;;;;;7.93;2.50;;;;;;;;;;4847752;29;20992;-88
2021/04/23 01:22:48;;;;;;;7.87;2.50;;;;;;;;;;4832928;29;20622;-88
2021/04/23 01:25:53;;;;;;;7.53;3.23;;;;;;;;;;4852974;29;20612;-88
2021/04/23 01:28:58;;;;;;;8.00;3.33;;;;;;;;;;4852973;29;20635;-88
2021/04/23 01:32:02;;;;;;;7.67;2.70;;;;;;;;;;4842065;29;20599;-88
2021/04/23 01:35:11;;;;;;;6.20;2.97;;;;;;;;;;4877469;29;21169;-88
2021/04/23 01:38:15;;;;;;;5.00;2.57;;;;;;;;;;4847553;29;20591;-88
2021/04/23 01:41:20;;;;;;;7.57;2.60;;;;;;;;;;4849227;29;21190;-88
2021/04/23 01:44:27;;;;;;;4.00;2.20;;;;;;;;;;4868815;29;20658;-88
2021/04/23 01:47:31;;;;;;;7.80;2.47;;;;;;;;;;4859553;29;21098;-88
2021/04/23 01:50:35;;;;;;;10.13;2.90;;;;;;;;;;4863105;29;20658;-88
2021/04/23 01:53:40;;;;;;;8.07;2.90;;;;;;;;;;4862969;29;20600;-88
2021/04/23 01:56:46;;;;;;;5.00;2.30;;;;;;;;;;4852606;29;20933;-88
2021/04/23 01:59:50;;;;;;;9.57;3.03;;;;;;;;;;4852197;29;20651;-88
2021/04/23 02:02:57;;;;;;;5.03;2.60;;;;;;;;;;4842728;29;20654;-88
2021/04/23 02:06:03;;;;;;;7.53;2.50;;;;;;;;;;4853116;29;20592;-88
2021/04/23 02:09:09;;;;;;;7.97;2.77;;;;;;;;;;4852441;29;20650;-89
2021/04/23 02:12:13;;;;;;;6.33;2.37;;;;;;;;;;4879655;29;20603;-88
2021/04/23 02:15:18;;;;;;;7.77;2.67;;;;;;;;;;4870302;29;20594;-88
2021/04/23 02:18:23;;;;;;;9.57;4.03;;;;;;;;;;4865420;29;21197;-88
2021/04/23 02:21:28;;;;;;;8.47;3.03;;;;;;;;;;4869123;29;20595;-88
2021/04/23 02:24:32;;;;;;;5.27;2.60;;;;;;;;;;4878487;29;20983;-88
2021/04/23 02:27:36;;;;;;;6.47;2.80;;;;;;;;;;4859670;29;20547;-88
2021/04/23 02:30:44;;;;;;;6.53;2.60;;;;;;;;;;4869867;29;21248;-88
2021/04/23 02:33:52;;;;;;;7.67;3.00;;;;;;;;;;4843307;29;21143;-88
2021/04/23 02:36:56;;;;;;;7.23;2.70;;;;;;;;;;4852262;29;20548;-88
2021/04/23 02:40:00;;;;;;;6.50;3.33;;;;;;;;;;4859295;29;20630;-88
2021/04/23 02:43:11;;;;;;;8.43;3.40;;;;;;;;;;4859394;29;20619;-88
2021/04/23 02:46:18;;;;;;;7.83;3.60;;;;;;;;;;4822565;29;20561;-88
2021/04/23 02:49:22;;;;;;;8.33;3.10;;;;;;;;;;4822736;29;20995;-88
2021/04/23 02:52:26;;;;;;;5.17;3.00;;;;;;;;;;4843235;29;20600;-88
2021/04/23 02:55:30;;;;;;;7.93;2.80;;;;;;;;;;4851427;29;20564;-88
2021/04/23 02:58:34;;;;;;;7.20;3.10;;;;;;;;;;4840776;29;20603;-88
2021/04/23 03:01:47;;;;;;;7.00;2.80;;;;;;;;;;4882107;23;21008;-87
2021/04/23 03:04:51;;;;;;;9.73;3.33;;;;;;;;;;4906835;29;21246;-87
2021/04/23 03:07:58;;;;;;;9.47;2.83;;;;;;;;;;4907029;29;20593;-87
2021/04/23 03:11:15;;;;;;;11.83;3.03;;;;;;;;;;4885690;29;20894;-87
2021/04/23 03:14:19;;;;;;;28.27;4.60;;;;;;;;;;4896242;29;20550;-87
2021/04/23 03:17:23;;;;;;;7.47;3.67;;;;;;;;;;4896033;29;20557;-87
2021/04/23 03:20:28;;;;;;;12.27;4.40;;;;;;;;;;4896196;29;20595;-87
2021/04/23 03:23:33;;;;;;;5.93;3.03;;;;;;;;;;4896105;29;20601;-87
2021/04/23 03:26:37;;;;;;;7.17;3.40;;;;;;;;;;4896379;29;20553;-87
2021/04/23 03:29:43;;;;;;;6.67;3.60;;;;;;;;;;4869553;29;20559;-87
2021/04/23 03:32:48;;;;;;;8.30;3.40;;;;;;;;;;4869574;29;20625;-87
2021/04/23 03:35:55;;;;;;;6.70;3.03;;;;;;;;;;4859372;29;20548;-87
2021/04/23 03:38:59;;;;;;;12.63;3.57;;;;;;;;;;4858741;29;20556;-87
2021/04/23 03:42:04;;;;;;;9.03;3.23;;;;;;;;;;4884161;29;20652;-87
2021/04/23 03:45:11;;;;;;;9.10;3.33;;;;;;;;;;4894327;29;20645;-87
2021/04/23 03:48:15;;;;;;;7.47;3.07;;;;;;;;;;4872876;29;20597;-86
2021/04/23 03:51:20;;;;;;;8.07;3.70;;;;;;;;;;4884993;29;20632;-87
2021/04/23 03:54:24;;;;;;;9.07;3.00;;;;;;;;;;4895921;29;20605;-87
2021/04/23 03:57:29;;;;;;;8.67;3.23;;;;;;;;;;4895526;29;20605;-87
2021/04/23 04:00:48;;;;;;;5.20;3.10;;;;;;;;;;4895884;29;20553;-87
2021/04/23 04:03:53;;;;;;;6.73;3.23;;;;;;;;;;4865234;29;20647;-87
2021/04/23 04:06:58;;;;;;;9.50;3.40;;;;;;;;;;4848042;29;20539;-87
2021/04/23 04:10:06;;;;;;;8.30;3.13;;;;;;;;;;4896052;29;20689;-87
2021/04/23 04:13:10;;;;;;;7.43;3.40;;;;;;;;;;4884818;29;20612;-87
2021/04/23 04:16:14;;;;;;;6.03;2.83;;;;;;;;;;4905936;29;20906;-87
2021/04/23 04:19:18;;;;;;;8.97;3.33;;;;;;;;;;4895604;29;20545;-87
2021/04/23 04:22:23;;;;;;;6.27;2.70;;;;;;;;;;4868673;29;21205;-87
2021/04/23 04:25:33;;;;;;;6.07;2.87;;;;;;;;;;4894789;29;20617;-87
2021/04/23 04:28:37;;;;;;;8.27;2.93;;;;;;;;;;4906220;29;20557;-87
2021/04/23 04:31:41;;;;;;;12.20;3.30;;;;;;;;;;4905743;29;21198;-87
2021/04/23 04:34:46;;;;;;;10.10;2.57;;;;;;;;;;4889972;29;20621;-87
2021/04/23 04:37:50;;;;;;;6.40;2.57;;;;;;;;;;4887634;29;20562;-84
2021/04/23 04:40:55;;;;;;;7.90;3.10;;;;;;;;;;4862304;29;20610;-86
2021/04/23 04:43:59;;;;;;;8.53;3.03;;;;;;;;;;4857716;29;20614;-86
2021/04/23 04:47:03;;;;;;;6.53;2.90;;;;;;;;;;4888181;29;20964;-86
2021/04/23 04:50:13;;;;;;;9.33;3.47;;;;;;;;;;4900455;29;20553;-86
2021/04/23 04:53:18;;;;;;;8.47;3.13;;;;;;;;;;4889090;29;20566;-86
2021/04/23 04:56:22;;;;;;;7.20;3.13;;;;;;;;;;4889519;29;20545;-86
2021/04/23 04:59:27;;;;;;;10.30;3.00;;;;;;;;;;4862083;29;20563;-86
2021/04/23 05:02:31;;;;;;;6.00;2.70;;;;;;;;;;4872319;29;20645;-86
2021/04/23 05:05:35;;;;;;;16.30;3.50;;;;;;;;;;4861881;29;20664;-86
2021/04/23 05:08:39;;;;;;;14.87;3.13;;;;;;;;;;4884153;29;20618;-87
2021/04/23 05:11:44;;;;;;;10.43;2.83;;;;;;;;;;4882927;29;20715;-88
2021/04/23 05:14:47;;;;;;;31.83;4.20;;;;;;;;;;4867354;29;20599;-87
2021/04/23 05:17:53;;;;;;;8.80;4.43;;;;;;;;;;4861675;29;20563;-87
2021/04/23 05:20:57;;;;;;;15.33;4.10;;;;;;;;;;4850508;29;21109;-85
2021/04/23 05:24:01;;;;;;;7.87;2.97;;;;;;;;;;4888229;29;20633;-86
2021/04/23 05:27:05;;;;;;;19.77;3.47;;;;;;;;;;4861678;29;20547;-85
2021/04/23 05:30:12;;;;;;;20.33;5.60;;;;;;;;;;4850417;29;20554;-86
2021/04/23 05:33:16;;;;;;;12.27;6.00;;;;;;;;;;4871973;29;20547;-86
2021/04/23 05:36:20;;;;;;;13.27;6.10;;;;;;;;;;4866389;29;20601;-86
2021/04/23 05:39:25;;;;;;;11.43;5.83;;;;;;;;;;4887553;29;20957;-85
2021/04/23 05:42:30;;;;;;;8.10;5.17;;;;;;;;;;4908887;29;20632;-85
2021/04/23 05:45:35;;;;;;;17.17;5.97;;;;;;;;;;4888016;29;21135;-85
2021/04/23 05:48:40;;;;;;;16.47;5.10;;;;;;;;;;4875614;29;21168;-86
2021/04/23 05:51:44;;;;;;;8.43;4.60;;;;;;;;;;4902135;29;20633;-86
2021/04/23 05:54:48;;;;;;;8.20;4.13;;;;;;;;;;4890929;29;20605;-86
2021/04/23 05:57:58;;;;;;;9.43;3.80;;;;;;;;;;4890445;29;20649;-86
2021/04/23 06:01:03;;;;;;;8.23;3.77;;;;;;;;;;4867775;29;20613;-86
2021/04/23 06:04:07;;;;;;;8.03;3.37;;;;;;;;;;4871297;29;20948;-86
2021/04/23 06:07:11;;;;;;;9.63;3.17;;;;;;;;;;4861372;29;20558;-86
2021/04/23 06:10:16;;;;;;;9.60;3.27;;;;;;;;;;4873203;29;21077;-86
2021/04/23 06:13:20;;;;;;;11.33;3.63;;;;;;;;;;4886469;29;20628;-86
2021/04/23 06:16:24;;;;;;;12.57;4.40;;;;;;;;;;4887280;29;20197;-85
2021/04/23 06:19:29;;;;;;;7.50;3.83;;;;;;;;;;4887144;29;20660;-87
2021/04/23 06:22:33;;;;;;;9.73;4.00;;;;;;;;;;4886545;29;20212;-86
2021/04/23 06:25:38;;;;;;;12.43;4.27;;;;;;;;;;4871269;29;20217;-86
2021/04/23 06:28:44;;;;;;;10.80;4.13;;;;;;;;;;4881789;29;20527;-86
2021/04/23 06:31:48;;;;;;;12.33;4.50;;;;;;;;;;4881922;29;20226;-86
2021/04/23 06:34:52;;;;;;;8.37;4.13;;;;;;;;;;4871007;29;20523;-86
2021/04/23 06:37:57;;;;;;;14.27;4.27;;;;;;;;;;4860476;29;20202;-86
2021/04/23 06:41:02;;;;;;;18.67;4.03;;;;;;;;;;4867823;29;20645;-86
2021/04/23 06:44:07;;;;;;;11.07;4.23;;;;;;;;;;4867761;29;20217;-86
2021/04/23 06:47:11;;;;;;;10.50;3.77;;;;;;;;;;4878287;29;20537;-86
2021/04/23 06:50:18;;;;;;;6.40;3.10;;;;;;;;;;4890726;29;20201;-85
2021/04/23 06:53:23;;;;;;;12.20;3.87;;;;;;;;;;4888800;29;20637;-86
2021/04/23 06:56:27;;;;;;;10.93;3.17;;;;;;;;;;4878219;29;20182;-86
2021/04/23 06:59:32;;;;;;;17.43;4.30;;;;;;;;;;4867502;29;20186;-86
2021/04/23 07:02:36;;;;;;;10.73;3.47;;;;;;;;;;4869893;29;20260;-86
2021/04/23 07:05:43;;;;;;;10.03;3.73;;;;;;;;;;4883936;29;20703;-86
2021/04/23 07:08:47;;;;;;;30.73;4.30;;;;;;;;;;4870158;29;20191;-86
2021/04/23 07:11:51;;;;;;;7.70;2.73;;;;;;;;;;4867948;29;20220;-86
2021/04/23 07:14:55;;;;;;;8.73;3.57;;;;;;;;;;4876015;29;20629;-87
2021/04/23 07:18:01;;;;;;;13.27;3.90;;;;;;;;;;4886065;29;20181;-86
2021/04/23 07:21:05;;;;;;;10.67;3.10;;;;;;;;;;4903578;29;20193;-86
2021/04/23 07:24:09;;;;;;;9.73;2.77;;;;;;;;;;4866806;29;20634;-86
2021/04/23 07:27:14;;;;;;;10.63;3.30;;;;;;;;;;4877225;29;20182;-87
2021/04/23 07:30:21;;;;;;;10.63;3.13;;;;;;;;;;4889609;29;20193;-86
2021/04/23 07:33:25;;;;;;;12.30;3.03;;;;;;;;;;4893204;29;20197;-86
2021/04/23 07:36:30;;;;;;;9.93;2.63;;;;;;;;;;4896012;29;20185;-87
2021/04/23 07:39:34;;;;;;;8.83;3.00;;;;;;;;;;4865951;29;20202;-86
2021/04/23 07:42:38;;;;;;;9.10;3.03;;;;;;;;;;4867269;29;20224;-86
2021/04/23 07:59:57;;;;;;;8.03;3.00;;;;;;;;;;4885777;29;20190;-87
2021/04/23 08:03:01;;;;;;;4.37;2.60;;;;;;;;;;4868571;29;20229;-86
2021/04/23 08:06:05;;;;;;;9.03;2.77;;;;;;;;;;4868988;29;20210;-87
2021/04/23 08:09:10;;;;;;;6.97;3.30;;;;;;;;;;4868658;29;20183;-86
2021/04/23 08:12:14;;;;;;;9.70;3.57;;;;;;;;;;4868881;29;20221;-86
2021/04/23 08:15:26;;;;;;;7.30;2.90;;;;;;;;;;4858105;29;20182;-86
2021/04/23 08:18:34;;;;;;;9.40;3.60;;;;;;;;;;4847594;29;20202;-86
2021/04/23 08:21:38;;;;;;;39.70;5.17;;;;;;;;;;4868665;29;20226;-86
2021/04/23 08:24:43;;;;;;;11.57;3.20;;;;;;;;;;4868774;29;20218;-87
2021/04/23 08:27:48;;;;;;;14.90;3.43;;;;;;;;;;4868804;29;20190;-86
2021/04/23 08:30:52;;;;;;;11.37;3.07;;;;;;;;;;4858290;29;20186;-86
2021/04/23 08:33:57;;;;;;;10.33;3.03;;;;;;;;;;4868760;29;20190;-86
2021/04/23 08:37:01;;;;;;;8.77;3.47;;;;;;;;;;4847501;29;20629;-86
2021/04/23 08:40:08;;;;;;;13.97;3.30;;;;;;;;;;4868798;29;20186;-85
2021/04/23 08:43:12;;;;;;;10.13;3.40;;;;;;;;;;4878918;29;20222;-85
2021/04/23 08:46:17;;;;;;;9.53;3.17;;;;;;;;;;4868444;29;20210;-86
2021/04/23 08:49:22;;;;;;;9.90;3.13;;;;;;;;;;4868374;29;20182;-86
2021/04/23 08:52:26;;;;;;;13.50;3.30;;;;;;;;;;4858099;29;20221;-86
2021/04/23 08:55:31;;;;;;;8.93;2.70;;;;;;;;;;4858236;29;20183;-86
2021/04/23 08:58:35;;;;;;;13.13;4.03;;;;;;;;;;4878748;29;20202;-86
2021/04/23 09:01:39;;;;;;;9.53;3.83;;;;;;;;;;4911962;23;20203;-86
2021/04/23 09:04:43;;;;;;;8.77;3.03;;;;;;;;;;4886915;29;20189;-87
2021/04/23 09:08:05;;;;;;;7.60;3.47;;;;;;;;;;4876266;29;20213;-87
2021/04/23 09:11:20;;;;;;;9.57;3.07;;;;;;;;;;4886976;29;20185;-87
2021/04/23 09:14:25;;;;;;;8.37;3.20;;;;;;;;;;4876061;29;20182;-86
2021/04/23 09:17:30;;;;;;;6.57;2.80;;;;;;;;;;4876173;29;20174;-87
2021/04/23 09:20:36;;;;;;;8.27;3.00;;;;;;;;;;4886993;29;20649;-87
2021/04/23 09:23:52;;;;;;;7.20;3.03;;;;;;;;;;4875764;29;20217;-86
2021/04/23 09:27:14;;;;;;;6.57;3.07;;;;;;;;;;4867915;29;20170;-87
2021/04/23 09:30:26;;;;;;;9.07;2.93;;;;;;;;;;4875993;29;20206;-87
2021/04/23 09:33:30;;;;;;;10.53;3.47;;;;;;;;;;4876922;29;20225;-86
2021/04/23 09:36:46;;;;;;;6.40;2.90;;;;;;;;;;4879364;29;20194;-86
2021/04/23 09:39:52;;;;;;;26.33;4.17;;;;;;;;;;4879204;29;20202;-87
2021/04/23 09:43:05;;;;;;;11.93;3.17;;;;;;;;;;4879063;29;20221;-86
2021/04/23 09:46:09;;;;;;;5.87;3.03;;;;;;;;;;4878914;29;20221;-86
2021/04/23 09:49:15;;;;;;;8.80;2.83;;;;;;;;;;4890549;29;20625;-87
2021/04/23 09:52:19;;;;;;;10.63;3.43;;;;;;;;;;4889800;29;20221;-87
2021/04/23 09:55:33;;;;;;;9.80;3.00;;;;;;;;;;4890146;29;20641;-87
2021/04/23 09:58:39;;;;;;;9.33;2.70;;;;;;;;;;4878605;29;20198;-86
2021/04/23 10:01:51;;;;;;;50.23;5.03;;;;;;;;;;4878905;29;20574;-87
2021/04/23 10:04:57;;;;;;;9.23;3.30;;;;;;;;;;4878732;29;20190;-87
2021/04/23 10:08:04;;;;;;;12.33;2.90;;;;;;;;;;4879808;29;20189;-89
2021/04/23 10:11:09;;;;;;;11.07;3.53;;;;;;;;;;4879100;29;20186;-89
2021/04/23 10:14:13;;;;;;;7.43;2.97;;;;;;;;;;4878842;29;20181;-90
2021/04/23 10:17:21;;;;;;;19.90;3.77;;;;;;;;;;4889447;29;20181;-90
2021/04/23 10:20:28;;;;;;;8.27;2.50;;;;;;;;;;4878766;29;20177;-87
2021/04/23 10:23:32;;;;;;;8.53;3.13;;;;;;;;;;4878596;29;20221;-87
2021/04/23 10:26:36;;;;;;;19.40;3.43;;;;;;;;;;4878654;29;20209;-86
2021/04/23 10:29:44;;;;;;;12.03;3.20;;;;;;;;;;4889046;29;20194;-87
2021/04/23 10:32:50;;;;;;;18.90;3.60;;;;;;;;;;4878177;29;20570;-87
2021/04/23 10:35:56;;;;;;;7.93;2.63;;;;;;;;;;4878609;29;20177;-87
2021/04/23 10:39:00;;;;;;;6.47;2.13;;;;;;;;;;4879668;29;20205;-90
2021/04/23 10:42:26;;;;;;;8.70;2.73;;;;;;;;;;4878237;29;20214;-90
2021/04/23 10:45:41;;;;;;;7.07;2.60;;;;;;;;;;4877466;29;20214;-91
2021/04/23 10:48:48;;;;;;;6.53;2.40;;;;;;;;;;4888817;29;20542;-91
2021/04/23 10:52:06;;;;;;;6.33;2.43;;;;;;;;;;4878290;29;20213;-90
2021/04/23 10:55:11;;;;;;;5.87;2.67;;;;;;;;;;4867474;29;20182;-90
2021/04/23 10:58:33;;;;;;;9.10;2.87;;;;;;;;;;4888798;29;20676;-90
2021/04/23 11:01:40;;;;;;;10.37;2.93;;;;;;;;;;4867058;29;20529;-90
2021/04/23 11:04:58;;;;;;;7.13;3.00;;;;;;;;;;4878787;29;20182;-90
2021/04/23 11:08:09;;;;;;;162.40;8.77;;;;;;;;;;4878071;29;20182;-91
2021/04/23 11:11:16;;;;;;;9.63;3.13;;;;;;;;;;4877923;29;20197;-91
2021/04/23 11:14:23;;;;;;;7.60;3.47;;;;;;;;;;4866957;29;20185;-91
2021/04/23 11:17:32;;;;;;;6.97;2.50;;;;;;;;;;4877765;29;20178;-91
2021/04/23 11:20:35;;;;;;;6.83;2.50;;;;;;;;;;4877758;29;20187;-91
2021/04/23 11:24:17;;;;;;;8.97;2.87;;;;;;;;;;4888001;29;20214;-90
2021/04/23 11:27:22;;;;;;;6.03;2.23;;;;;;;;;;4818438;29;20598;-91
2021/04/23 11:30:49;;;;;;;4.20;1.93;;;;;;;;;;4877473;29;20190;-90
2021/04/23 11:33:55;;;;;;;4.87;2.73;;;;;;;;;;4888404;29;20187;-90
2021/04/23 11:37:04;;;;;;;5.17;2.63;;;;;;;;;;4888384;29;20182;-90
2021/04/23 11:40:19;;;;;;;9.63;3.00;;;;;;;;;;4898667;29;20190;-91
2021/04/23 11:43:37;;;;;;;6.60;2.63;;;;;;;;;;4877040;29;20227;-90
2021/04/23 11:46:53;;;;;;;9.57;2.93;;;;;;;;;;4887928;29;20210;-90
2021/04/23 11:50:01;;;;;;;8.97;3.03;;;;;;;;;;4877076;29;20190;-90
2021/04/23 11:53:11;;;;;;;9.63;3.00;;;;;;;;;;4876789;29;20217;-90
2021/04/23 11:56:15;;;;;;;6.93;2.90;;;;;;;;;;4877124;29;20185;-90
2021/04/23 11:59:20;;;;;;;7.50;2.70;;;;;;;;;;4877058;29;20185;-90
2021/04/23 12:02:42;;;;;;;6.87;2.90;;;;;;;;;;4897809;29;20237;-90
2021/04/23 12:05:49;;;;;;;5.70;2.80;;;;;;;;;;4875398;29;20213;-89
2021/04/23 12:08:53;;;;;;;7.20;3.03;;;;;;;;;;4879420;29;20210;-89
2021/04/23 12:12:09;;;;;;;7.30;3.10;;;;;;;;;;4868775;29;20222;-90
2021/04/23 12:15:17;;;;;;;6.33;2.77;;;;;;;;;;4879454;29;20182;-89
2021/04/23 12:18:22;;;;;;;5.30;2.70;;;;;;;;;;4877520;29;20179;-89
2021/04/23 12:21:26;;;;;;;6.33;2.70;;;;;;;;;;4856193;29;20198;-89
2021/04/23 12:24:31;;;;;;;7.03;3.13;;;;;;;;;;4866790;29;20202;-88
2021/04/23 12:27:35;;;;;;;6.17;3.07;;;;;;;;;;4866598;29;20217;-88
2021/04/23 12:30:39;;;;;;;4.67;2.83;;;;;;;;;;4866694;29;20194;-89
2021/04/23 12:33:58;;;;;;;11.40;3.03;;;;;;;;;;4866643;29;20226;-89
2021/04/23 12:37:02;;;;;;;16.17;3.40;;;;;;;;;;4866664;29;20174;-89
2021/04/23 12:40:28;;;;;;;7.53;2.90;;;;;;;;;;4864014;29;20206;-88
2021/04/23 12:43:42;;;;;;;7.40;3.20;;;;;;;;;;4857192;29;20222;-88
2021/04/23 12:46:54;;;;;;;11.63;3.23;;;;;;;;;;4866550;29;20221;-89
2021/04/23 12:49:58;;;;;;;12.03;3.53;;;;;;;;;;4869400;29;20562;-89
2021/04/23 12:53:03;;;;;;;12.70;3.30;;;;;;;;;;4865949;29;20217;-89
2021/04/23 12:56:08;;;;;;;9.03;2.60;;;;;;;;;;4866444;29;20550;-89
2021/04/23 12:59:36;;;;;;;8.07;2.70;;;;;;;;;;4895578;29;20213;-88
2021/04/23 13:02:41;;;;;;;6.20;3.07;;;;;;;;;;4884575;29;20225;-89
2021/04/23 13:05:46;;;;;;;9.43;3.23;;;;;;;;;;4884942;29;20193;-89
2021/04/23 13:09:04;;;;;;;8.53;2.80;;;;;;;;;;4897339;29;20174;-89
2021/04/23 13:12:25;;;;;;;4.53;2.60;;;;;;;;;;4877884;29;20225;-89
2021/04/23 13:15:41;;;;;;;6.23;2.33;;;;;;;;;;4880077;29;20181;-90
2021/04/23 13:18:48;;;;;;;4.43;2.13;;;;;;;;;;4890510;29;20182;-89
2021/04/23 13:21:52;;;;;;;8.47;2.80;;;;;;;;;;4900901;29;20221;-89
2021/04/23 13:25:11;;;;;;;9.20;2.77;;;;;;;;;;4890306;29;20185;-89
2021/04/23 13:28:17;;;;;;;8.00;2.97;;;;;;;;;;4890541;29;20217;-89
2021/04/23 13:31:22;;;;;;;7.70;3.20;;;;;;;;;;4889867;29;20182;-89
2021/04/23 13:34:26;;;;;;;12.20;2.83;;;;;;;;;;4879492;29;20185;-89
2021/04/23 13:37:34;;;;;;;16.30;2.93;;;;;;;;;;4900785;29;20181;-89
2021/04/23 13:40:38;;;;;;;7.20;2.63;;;;;;;;;;4868581;29;20676;-90
2021/04/23 13:43:51;;;;;;;4.37;2.50;;;;;;;;;;4879026;29;20562;-89
2021/04/23 13:46:57;;;;;;;7.33;2.60;;;;;;;;;;4900752;29;20210;-90
2021/04/23 13:50:12;;;;;;;6.83;3.30;;;;;;;;;;4890188;29;20186;-89
2021/04/23 13:53:16;;;;;;;7.13;3.77;;;;;;;;;;4900151;29;20222;-89
2021/04/23 13:56:37;;;;;;;6.97;2.50;;;;;;;;;;4879320;29;20621;-89
2021/04/23 13:59:42;;;;;;;6.10;2.90;;;;;;;;;;4900322;29;20536;-90
2021/04/23 14:03:00;;;;;;;9.17;2.83;;;;;;;;;;4878528;29;20229;-90
2021/04/23 14:06:05;;;;;;;6.40;2.70;;;;;;;;;;4889710;29;20626;-89
2021/04/23 14:09:12;;;;;;;5.73;2.23;;;;;;;;;;4878983;29;20189;-90
2021/04/23 14:12:21;;;;;;;8.43;3.07;;;;;;;;;;4879057;29;20292;-91
2021/04/23 14:15:26;;;;;;;5.30;2.60;;;;;;;;;;4889709;29;20190;-90
2021/04/23 14:18:30;;;;;;;22.93;3.87;;;;;;;;;;4879648;29;20173;-90
2021/04/23 14:21:36;;;;;;;17.50;3.20;;;;;;;;;;4889634;29;20187;-85
2021/04/23 14:24:42;;;;;;;9.83;3.00;;;;;;;;;;4900408;29;20185;-85
2021/04/23 14:27:46;;;;;;;8.60;3.50;;;;;;;;;;4878886;29;20212;-85
2021/04/23 14:30:50;;;;;;;8.47;2.60;;;;;;;;;;4889623;29;20186;-85
2021/04/23 14:33:57;;;;;;;15.37;4.30;;;;;;;;;;4879628;29;20190;-85
2021/04/23 14:37:02;;;;;;;7.47;3.20;;;;;;;;;;4889517;29;20190;-85
2021/04/23 14:40:07;;;;;;;8.20;2.63;;;;;;;;;;4889750;29;20189;-84
2021/04/23 14:43:11;;;;;;;8.03;3.00;;;;;;;;;;4888911;29;20213;-82
2021/04/23 14:46:15;;;;;;;7.67;3.03;;;;;;;;;;4899788;29;20182;-82
2021/04/23 14:49:20;;;;;;;8.23;3.57;;;;;;;;;;4878483;29;20174;-81
2021/04/23 14:52:25;;;;;;;7.50;2.97;;;;;;;;;;4888930;29;20217;-82
2021/04/23 14:55:30;;;;;;;7.83;2.97;;;;;;;;;;4888578;29;20185;-82
2021/04/23 14:58:34;;;;;;;7.87;3.10;;;;;;;;;;4878084;29;20177;-81
2021/04/23 15:01:39;;;;;;;6.47;3.00;;;;;;;;;;4888350;29;20205;-81
2021/04/23 15:04:42;;;;;;;6.57;2.90;;;;;;;;;;4905441;23;20241;-74
2021/04/23 15:07:47;;;;;;;8.53;2.60;;;;;;;;;;4861837;29;20222;-75
2021/04/23 15:10:53;;;;;;;5.87;2.97;;;;;;;;;;4862339;29;20199;-74
2021/04/23 15:13:56;;;;;;;7.77;3.13;;;;;;;;;;4862560;29;20191;-73
2021/04/23 15:17:01;;;;;;;17.87;3.73;;;;;;;;;;4862485;29;20218;-73
2021/04/23 15:20:11;;;;;;;8.50;2.60;;;;;;;;;;4872316;29;20207;-74
2021/04/23 15:23:19;;;;;;;6.97;2.70;;;;;;;;;;4854160;29;20215;-73
2021/04/23 15:26:23;;;;;;;7.40;2.80;;;;;;;;;;4852975;29;20223;-73
2021/04/23 15:29:30;;;;;;;13.47;3.10;;;;;;;;;;4842590;29;20184;-74
2021/04/23 15:32:34;;;;;;;5.40;2.23;;;;;;;;;;4842530;29;20180;-73
2021/04/23 15:35:39;;;;;;;8.70;2.80;;;;;;;;;;4843177;29;20564;-74
2021/04/23 15:38:45;;;;;;;11.70;2.80;;;;;;;;;;4843319;29;20179;-73
2021/04/23 15:41:50;;;;;;;7.13;2.67;;;;;;;;;;4843145;29;20187;-74
2021/04/23 15:44:55;;;;;;;8.87;2.80;;;;;;;;;;4843026;29;20180;-73
2021/04/23 15:48:00;;;;;;;7.07;3.17;;;;;;;;;;4843167;29;20207;-74
2021/04/23 15:51:06;;;;;;;7.77;2.60;;;;;;;;;;4843206;29;20192;-74
2021/04/23 15:54:10;;;;;;;6.80;3.33;;;;;;;;;;4843180;29;20195;-73
2021/04/23 15:57:14;;;;;;;10.30;3.10;;;;;;;;;;4842921;29;20187;-73
2021/04/23 16:00:22;;;;;;;7.50;2.60;;;;;;;;;;4843134;29;20529;-74
2021/04/23 16:03:26;;;;;;;8.53;2.87;;;;;;;;;;4840825;29;20560;-74
2021/04/23 16:06:30;;;;;;;8.50;5.27;;;;;;;;;;4838199;29;20549;-73
2021/04/23 16:09:34;;;;;;;10.63;3.80;;;;;;;;;;4838936;29;20203;-73
2021/04/23 16:12:40;;;;;;;5.33;2.50;;;;;;;;;;4838387;29;20187;-73
2021/04/23 16:15:44;;;;;;;61.37;18.27;;;;;;;;;;4827615;29;20223;-77
2021/04/23 16:18:51;;;;;;;37.40;13.33;;;;;;;;;;4838921;29;20516;-73
2021/04/23 16:21:55;;;;;;;11.07;4.13;;;;;;;;;;4838880;29;20593;-73
2021/04/23 16:24:59;;;;;;;20.90;8.60;;;;;;;;;;4837954;29;20183;-73
2021/04/23 16:28:04;;;;;;;15.00;6.23;;;;;;;;;;4837704;29;20211;-73
2021/04/23 16:31:08;;;;;;;12.97;5.57;;;;;;;;;;4838908;29;20187;-73
2021/04/23 16:34:12;;;;;;;4.73;2.40;;;;;;;;;;4838670;29;20203;-73
2021/04/23 16:37:16;;;;;;;14.83;5.03;;;;;;;;;;4838761;29;20667;-73
2021/04/23 16:40:21;;;;;;;9.33;3.00;;;;;;;;;;4837632;29;20200;-72
2021/04/23 16:43:25;;;;;;;10.23;3.83;;;;;;;;;;4839585;29;20195;-73
2021/04/23 16:46:30;;;;;;;8.67;3.50;;;;;;;;;;4842447;29;20227;-72
2021/04/23 16:49:36;;;;;;;8.73;3.30;;;;;;;;;;4842505;29;20188;-72
2021/04/23 16:52:42;;;;;;;9.23;2.87;;;;;;;;;;4842272;29;20207;-72
2021/04/23 16:55:46;;;;;;;7.93;2.90;;;;;;;;;;4842483;29;20227;-73
2021/04/23 16:58:50;;;;;;;7.03;3.20;;;;;;;;;;4851962;29;20207;-72
2021/04/23 17:01:55;;;;;;;7.37;2.63;;;;;;;;;;4843928;29;20207;-72
2021/04/23 17:04:59;;;;;;;5.00;2.50;;;;;;;;;;4854215;29;20214;-72
2021/04/23 17:08:04;;;;;;;17.07;3.10;;;;;;;;;;4860479;29;20210;-72
2021/04/23 17:11:08;;;;;;;12.50;2.80;;;;;;;;;;4860650;29;20183;-72
2021/04/23 17:14:12;;;;;;;5.97;2.73;;;;;;;;;;4860703;29;20651;-72
2021/04/23 17:17:16;;;;;;;52.93;5.87;;;;;;;;;;4860490;29;20187;-73
2021/04/23 17:20:22;;;;;;;11.57;3.00;;;;;;;;;;4860399;29;20191;-73
2021/04/23 17:23:26;;;;;;;7.70;2.63;;;;;;;;;;4859677;29;20210;-73
2021/04/23 17:26:31;;;;;;;6.30;3.03;;;;;;;;;;4860339;29;20222;-75
2021/04/23 17:29:35;;;;;;;8.07;2.77;;;;;;;;;;4848947;29;20223;-72
2021/04/23 17:32:46;;;;;;;6.00;2.93;;;;;;;;;;4860239;29;20191;-72
2021/04/23 17:35:50;;;;;;;6.57;2.70;;;;;;;;;;4860280;29;20619;-73
2021/04/23 17:38:54;;;;;;;8.30;2.80;;;;;;;;;;4860083;29;20183;-72
2021/04/23 17:41:59;;;;;;;6.77;2.73;;;;;;;;;;4860626;29;20187;-73
2021/04/23 17:45:05;;;;;;;6.27;2.83;;;;;;;;;;4860300;29;20183;-72
2021/04/23 17:48:10;;;;;;;4.87;2.60;;;;;;;;;;4860566;29;20226;-73
2021/04/23 17:51:14;;;;;;;7.63;2.97;;;;;;;;;;4860402;29;20198;-72
2021/04/23 17:54:18;;;;;;;5.50;2.40;;;;;;;;;;4860830;29;20198;-73
2021/04/23 17:57:23;;;;;;;11.63;3.20;;;;;;;;;;4860325;29;20547;-72
2021/04/23 18:00:28;;;;;;;13.13;3.10;;;;;;;;;;4861311;29;20539;-72
2021/04/23 18:03:32;;;;;;;21.93;4.23;;;;;;;;;;4860079;29;20206;-74
2021/04/23 18:06:36;;;;;;;32.30;4.00;;;;;;;;;;4870272;29;20226;-73
2021/04/23 18:09:41;;;;;;;12.90;3.33;;;;;;;;;;4860119;29;20219;-73
2021/04/23 18:12:46;;;;;;;9.60;3.30;;;;;;;;;;4870441;29;20206;-73
2021/04/23 18:15:51;;;;;;;4.73;2.30;;;;;;;;;;4869356;29;20234;-73
2021/04/23 18:18:56;;;;;;;5.23;2.67;;;;;;;;;;4859952;29;20183;-73
2021/04/23 18:22:02;;;;;;;3.43;2.50;;;;;;;;;;4860764;29;20183;-73
2021/04/23 18:25:07;;;;;;;5.20;2.43;;;;;;;;;;4860226;29;20715;-73
2021/04/23 18:28:11;;;;;;;31.27;4.43;;;;;;;;;;4869008;29;20222;-72
2021/04/23 18:31:16;;;;;;;12.23;2.30;;;;;;;;;;4859102;29;20191;-72
2021/04/23 18:34:20;;;;;;;11.77;3.03;;;;;;;;;;4859016;29;20191;-71
2021/04/23 18:37:25;;;;;;;9.50;3.00;;;;;;;;;;4868844;29;20186;-72
2021/04/23 18:40:29;;;;;;;6.27;2.30;;;;;;;;;;4858757;29;20183;-72
2021/04/23 18:43:33;;;;;;;6.93;2.40;;;;;;;;;;4868712;29;20191;-72
2021/04/23 18:46:39;;;;;;;5.07;2.20;;;;;;;;;;4858684;29;20226;-72